Time;durP1;ratioP1;P1;durP2;ratioP2;P2;SDS_P1;SDS_P2;PMS_P1;PMS_P2;Temp;Humidity;BMP_temperature;BMP_pressure;BME280_temperature;BME280_humidity;BME280_pressure;Samples;Min_cycle;Max_cycle;Signal;HPM_P1;HPM_P2
2022/12/22 14:26:23;;;;;;;18.50;12.57;;;;;;;7.93;100.00;100481.78;5285542;27;20461;-70
2022/12/22 14:28:55;;;;;;;16.43;12.87;;;;;;;7.96;100.00;100475.53;5278849;28;20040;-72
2022/12/22 14:31:27;;;;;;;15.13;12.30;;;;;;;8.00;100.00;100471.84;5275778;28;20033;-71
2022/12/22 14:34:04;;;;;;;15.00;11.57;;;;;;;7.94;100.00;100462.59;5275588;28;20039;-71
2022/12/22 14:36:44;;;;;;;19.70;12.90;;;;;;;7.92;100.00;100468.81;5283596;28;20170;-71
2022/12/22 14:39:25;;;;;;;18.10;11.37;;;;;;;7.97;100.00;100467.66;5280196;28;20027;-70
2022/12/22 14:42:10;;;;;;;15.40;11.17;;;;;;;7.96;100.00;100462.50;5280203;28;20025;-74
2022/12/22 14:44:43;;;;;;;15.77;11.25;;;;;;;8.02;100.00;100454.34;5284761;28;20027;-72
2022/12/22 14:47:19;;;;;;;15.75;11.10;;;;;;;7.89;100.00;100448.97;5288217;28;20020;-72
2022/12/22 14:50:12;;;;;;;16.87;11.30;;;;;;;8.01;100.00;100451.84;5269111;28;22669;-74
2022/12/22 14:52:50;;;;;;;15.73;11.60;;;;;;;7.91;100.00;100449.72;5268690;28;20532;-75
2022/12/22 14:55:30;;;;;;;12.73;10.97;;;;;;;8.01;100.00;100452.69;5270184;28;20036;-75
2022/12/22 14:58:13;;;;;;;16.97;11.43;;;;;;;8.03;100.00;100450.00;5274024;28;20391;-73
2022/12/22 15:00:47;;;;;;;16.10;11.37;;;;;;;7.99;100.00;100437.09;5281861;28;20094;-78
2022/12/22 15:03:24;;;;;;;14.82;12.18;;;;;;;7.87;100.00;100436.00;5273116;28;20115;-74
2022/12/22 15:05:55;;;;;;;16.20;12.70;;;;;;;7.82;100.00;100442.44;5270265;28;20035;-73
2022/12/22 15:08:42;;;;;;;16.93;13.53;;;;;;;7.95;100.00;100443.44;5270059;28;20457;-74
2022/12/22 15:11:18;;;;;;;16.40;12.40;;;;;;;8.01;100.00;100438.78;5270410;28;20404;-72
2022/12/22 15:13:50;;;;;;;15.83;11.37;;;;;;;7.86;100.00;100431.72;5269454;28;20033;-72
2022/12/22 15:16:22;;;;;;;14.70;12.30;;;;;;;7.96;100.00;100429.44;5269057;28;20033;-72
2022/12/22 15:18:54;;;;;;;17.33;12.73;;;;;;;7.96;100.00;100434.66;5281205;28;20644;-73
2022/12/22 15:21:25;;;;;;;15.63;13.17;;;;;;;7.91;100.00;100431.47;5288488;28;20020;-74
2022/12/22 15:23:56;;;;;;;17.23;12.40;;;;;;;7.82;100.00;100421.56;5270904;28;20060;-74
2022/12/22 15:26:28;;;;;;;16.17;12.70;;;;;;;7.84;100.00;100425.75;5274754;28;20108;-73
2022/12/22 15:28:59;;;;;;;15.33;12.20;;;;;;;7.77;100.00;100426.19;5270788;28;20028;-73
2022/12/22 15:31:30;;;;;;;17.13;11.80;;;;;;;7.85;100.00;100409.19;5274471;28;20033;-74
2022/12/22 15:34:06;;;;;;;19.37;13.00;;;;;;;7.73;100.00;100404.66;5269425;28;20041;-72
2022/12/22 15:36:37;;;;;;;15.27;10.87;;;;;;;7.78;100.00;100409.63;5264074;28;20541;-71
2022/12/22 15:39:16;;;;;;;16.77;11.70;;;;;;;7.78;100.00;100407.84;5256409;28;20132;-72
2022/12/22 15:41:48;;;;;;;15.80;12.03;;;;;;;7.69;100.00;100410.97;5255907;28;20105;-73
2022/12/22 15:44:21;;;;;;;12.00;10.80;;;;;;;7.67;100.00;100384.97;5256660;28;20116;-75
2022/12/22 15:46:56;;;;;;;13.87;10.70;;;;;;;7.67;100.00;100398.00;5263811;28;20124;-74
2022/12/22 15:49:28;;;;;;;13.83;9.83;;;;;;;7.80;100.00;100392.94;5255700;28;20464;-72
2022/12/22 15:52:03;;;;;;;11.43;9.00;;;;;;;7.85;100.00;100395.31;5255895;28;20036;-72
2022/12/22 15:54:34;;;;;;;12.65;10.30;;;;;;;7.78;100.00;100389.63;5260269;28;20483;-70
2022/12/22 15:57:10;;;;;;;11.70;9.83;;;;;;;7.88;100.00;100389.94;5255126;28;20056;-72
2022/12/22 15:59:41;;;;;;;11.93;8.73;;;;;;;7.78;100.00;100370.50;5259086;28;20056;-73
2022/12/22 16:02:12;;;;;;;10.90;9.77;;;;;;;7.80;100.00;100371.28;5266073;28;20029;-72
2022/12/22 16:04:44;;;;;;;11.33;9.43;;;;;;;7.86;100.00;100376.13;5267406;28;20032;-72
2022/12/22 16:07:15;;;;;;;11.60;10.00;;;;;;;7.81;100.00;100365.13;5255731;28;20025;-72
2022/12/22 16:09:47;;;;;;;12.67;11.10;;;;;;;7.82;100.00;100369.44;5255214;28;20032;-72
2022/12/22 16:12:18;;;;;;;13.27;9.83;;;;;;;7.93;100.00;100372.25;5252255;28;20033;-70
2022/12/22 16:14:53;;;;;;;14.80;10.40;;;;;;;7.94;100.00;100355.66;5246220;28;20037;-71
2022/12/22 16:17:27;;;;;;;12.70;10.23;;;;;;;7.95;100.00;100354.75;5247926;28;20139;-71
2022/12/22 16:19:59;;;;;;;11.97;10.60;;;;;;;7.88;100.00;100348.22;5248160;28;20151;-71
2022/12/22 16:22:33;;;;;;;11.93;9.63;;;;;;;7.93;100.00;100350.53;5247744;28;20041;-71
2022/12/22 16:25:11;;;;;;;10.77;9.73;;;;;;;7.93;100.00;100338.34;5246541;28;20052;-71
2022/12/22 16:27:42;;;;;;;11.87;10.27;;;;;;;7.97;100.00;100320.78;5247168;28;20060;-71
2022/12/22 16:30:18;;;;;;;11.90;10.30;;;;;;;8.04;100.00;100329.09;5245787;28;20021;-71
2022/12/22 16:32:51;;;;;;;12.23;11.03;;;;;;;7.92;100.00;100318.44;5245229;28;20083;-71
2022/12/22 16:35:25;;;;;;;11.90;10.70;;;;;;;8.05;100.00;100328.13;5246934;28;20078;-71
2022/12/22 16:37:58;;;;;;;12.15;10.40;;;;;;;8.02;100.00;100318.75;5246037;28;20033;-73
2022/12/22 16:40:32;;;;;;;14.07;10.77;;;;;;;7.82;100.00;100288.59;5247364;28;20029;-74
2022/12/22 16:43:15;;;;;;;11.48;10.38;;;;;;;8.07;100.00;100316.72;5247701;28;20155;-73
2022/12/22 16:45:46;;;;;;;11.50;10.30;;;;;;;8.05;100.00;100302.06;5247028;28;20499;-73
2022/12/22 16:48:26;;;;;;;11.37;10.20;;;;;;;8.15;100.00;100312.81;5244798;28;20036;-74
2022/12/22 16:50:57;;;;;;;12.43;11.13;;;;;;;8.00;100.00;100297.13;5246687;28;20041;-72
2022/12/22 16:53:29;;;;;;;11.60;10.50;;;;;;;8.16;100.00;100301.44;5246827;28;20128;-74
2022/12/22 16:56:00;;;;;;;12.37;10.97;;;;;;;8.20;100.00;100306.38;5247256;28;20044;-74
2022/12/22 16:58:31;;;;;;;13.87;11.73;;;;;;;8.19;100.00;100289.06;5247507;28;20407;-72
2022/12/22 17:01:03;;;;;;;13.50;11.40;;;;;;;8.22;100.00;100299.31;5243560;28;20041;-72
2022/12/22 17:03:37;;;;;;;14.77;12.03;;;;;;;8.21;100.00;100297.66;5246870;28;20029;-72
2022/12/22 17:06:09;;;;;;;16.97;11.73;;;;;;;8.28;100.00;100298.13;5248870;28;20024;-75
2022/12/22 17:08:42;;;;;;;15.47;10.63;;;;;;;8.32;100.00;100298.78;5245880;28;20110;-73
2022/12/22 17:11:21;;;;;;;18.37;12.53;;;;;;;8.31;100.00;100281.44;5243658;28;20049;-71
2022/12/22 17:14:02;;;;;;;19.60;12.13;;;;;;;8.39;100.00;100286.19;5246563;28;20446;-71
2022/12/22 17:16:33;;;;;;;19.83;11.70;;;;;;;8.35;100.00;100277.72;5245979;28;20039;-71
2022/12/22 17:19:05;;;;;;;18.57;11.77;;;;;;;8.37;100.00;100269.78;5245947;28;20024;-73
2022/12/22 17:21:37;;;;;;;24.03;12.90;;;;;;;8.40;100.00;100275.66;5245830;28;20041;-73
2022/12/22 17:24:11;;;;;;;24.20;12.23;;;;;;;8.46;100.00;100275.31;5245571;28;20510;-73
2022/12/22 17:26:42;;;;;;;;;;;;;;;8.53;100.00;100272.31;5245778;28;20020;-72
2022/12/22 17:29:17;;;;;;;24.03;13.13;;;;;;;8.51;100.00;100268.97;5248274;28;19970;-71
2022/12/22 17:31:49;;;;;;;27.57;12.83;;;;;;;8.52;100.00;100268.88;5243877;28;20033;-70
2022/12/22 17:34:21;;;;;;;28.47;12.83;;;;;;;8.55;100.00;100263.50;5245291;28;20545;-71
2022/12/22 17:36:55;;;;;;;35.77;13.27;;;;;;;8.53;100.00;100256.66;5245124;28;20083;-70
2022/12/22 17:39:26;;;;;;;39.03;14.30;;;;;;;8.59;100.00;100251.94;5244440;28;20507;-72
2022/12/22 17:41:58;;;;;;;35.60;14.43;;;;;;;8.62;100.00;100256.16;5243848;28;20119;-70
2022/12/22 17:44:30;;;;;;;35.33;12.30;;;;;;;8.62;100.00;100243.09;5244023;28;20060;-73
2022/12/22 17:47:04;;;;;;;37.27;14.77;;;;;;;8.60;100.00;100229.28;5243800;28;20484;-74
2022/12/22 17:49:35;;;;;;;38.10;12.93;;;;;;;8.64;100.00;100235.97;5245020;28;20081;-72
2022/12/22 17:52:21;;;;;;;31.70;12.20;;;;;;;8.65;100.00;100234.22;5245818;28;20033;-71
2022/12/22 17:54:53;;;;;;;36.23;14.33;;;;;;;8.66;100.00;100226.28;5243837;28;20521;-73
2022/12/22 17:57:28;;;;;;;30.47;11.80;;;;;;;8.69;100.00;100227.91;5242810;28;20048;-71
2022/12/22 18:00:00;;;;;;;39.50;11.93;;;;;;;8.73;100.00;100231.97;5242094;28;20029;-68
2022/12/22 18:02:31;;;;;;;41.87;13.50;;;;;;;8.74;100.00;100236.28;5242837;28;21424;-66
2022/12/22 18:05:02;;;;;;;30.73;11.47;;;;;;;8.74;100.00;100230.22;5244618;28;20032;-68
2022/12/22 18:07:34;;;;;;;33.40;11.83;;;;;;;8.80;100.00;100224.59;5245948;28;20107;-70
2022/12/22 18:10:06;;;;;;;34.67;11.77;;;;;;;8.77;100.00;100224.78;5245286;28;20106;-68
2022/12/22 18:12:37;;;;;;;37.27;11.30;;;;;;;8.80;100.00;100229.81;5245551;28;20075;-68
2022/12/22 18:15:18;;;;;;;42.20;11.73;;;;;;;8.83;100.00;100225.25;5243319;28;20068;-72
2022/12/22 18:17:50;;;;;;;50.13;14.67;;;;;;;8.84;100.00;100228.69;5244852;28;20515;-70
2022/12/22 18:20:24;;;;;;;38.00;11.97;;;;;;;8.84;100.00;100215.66;5247111;28;20032;-70
2022/12/22 18:22:58;;;;;;;39.80;11.73;;;;;;;8.88;100.00;100214.53;5244912;28;20057;-69
2022/12/22 18:25:31;;;;;;;40.55;11.38;;;;;;;8.87;100.00;100199.78;5245591;28;20041;-70
2022/12/22 18:28:02;;;;;;;49.77;13.13;;;;;;;8.85;100.00;100196.41;5245219;28;20047;-69
2022/12/22 18:30:35;;;;;;;43.00;12.73;;;;;;;8.90;100.00;100204.78;5244623;28;20028;-69
2022/12/22 18:33:06;;;;;;;50.53;14.07;;;;;;;8.92;100.00;100207.34;5244892;28;20029;-68
2022/12/22 18:35:39;;;;;;;49.83;12.70;;;;;;;8.93;100.00;100207.25;5246627;28;20029;-72
2022/12/22 18:38:36;;;;;;;50.03;12.23;;;;;;;8.90;100.00;100188.31;5245682;28;20563;-72
2022/12/22 18:41:08;;;;;;;54.10;14.67;;;;;;;8.98;100.00;100203.47;5245112;28;20037;-68
2022/12/22 18:43:39;;;;;;;47.13;14.87;;;;;;;8.98;100.00;100206.09;5245504;28;20025;-70
2022/12/22 18:46:11;;;;;;;53.80;13.90;;;;;;;8.97;100.00;100201.81;5245010;28;20046;-70
2022/12/22 18:48:42;;;;;;;49.30;14.10;;;;;;;9.00;100.00;100199.84;5245700;28;20078;-68
2022/12/22 18:51:24;;;;;;;51.73;11.77;;;;;;;9.00;100.00;100191.16;5246220;28;20017;-69
2022/12/22 18:53:56;;;;;;;49.77;13.17;;;;;;;9.03;100.00;100194.44;5245769;28;20039;-71
2022/12/22 18:56:27;;;;;;;53.53;13.33;;;;;;;8.99;100.00;100186.91;5246981;28;20025;-67
2022/12/22 18:58:58;;;;;;;51.93;14.43;;;;;;;9.06;100.00;100196.00;5245397;28;20028;-70
2022/12/22 19:01:29;;;;;;;49.33;13.47;;;;;;;9.07;100.00;100195.06;5244095;28;20126;-69
2022/12/22 19:04:01;;;;;;;39.97;12.63;;;;;;;9.06;100.00;100196.00;5245431;28;20025;-71
2022/12/22 19:06:32;;;;;;;55.03;12.77;;;;;;;9.09;100.00;100193.19;5246722;28;20067;-70
2022/12/22 19:09:11;;;;;;;51.57;11.07;;;;;;;9.08;100.00;100189.75;5245696;28;21298;-72
2022/12/22 19:11:43;;;;;;;48.10;12.03;;;;;;;9.09;100.00;100187.97;5247211;28;20607;-69
2022/12/22 19:14:20;;;;;;;45.53;11.57;;;;;;;8.85;100.00;100159.84;5249951;28;20028;-72
2022/12/22 19:16:53;;;;;;;41.43;11.17;;;;;;;9.10;100.00;100199.25;5249994;28;20029;-70
2022/12/22 19:19:24;;;;;;;38.60;12.17;;;;;;;9.14;100.00;100203.34;5248141;28;20592;-69
2022/12/22 19:21:55;;;;;;;36.63;10.03;;;;;;;9.14;100.00;100209.41;5248435;28;20032;-69
2022/12/22 19:24:27;;;;;;;36.13;10.53;;;;;;;9.15;100.00;100205.84;5247583;28;20076;-70
2022/12/22 19:26:58;;;;;;;42.27;12.07;;;;;;;9.18;100.00;100204.84;5248228;28;20052;-74
2022/12/22 19:29:29;;;;;;;41.60;11.37;;;;;;;9.18;100.00;100203.03;5247654;28;20029;-72
2022/12/22 19:32:01;;;;;;;41.53;11.00;;;;;;;9.22;100.00;100208.91;5248345;28;20037;-73
2022/12/22 19:34:32;;;;;;;36.50;10.07;;;;;;;9.18;100.00;100197.81;5248287;28;20029;-69
2022/12/22 19:37:03;;;;;;;42.13;11.30;;;;;;;9.14;100.00;100204.19;5247609;28;20176;-69
2022/12/22 19:39:35;;;;;;;43.77;11.93;;;;;;;9.18;100.00;100210.06;5248557;28;20044;-69
2022/12/22 19:42:14;;;;;;;42.30;12.23;;;;;;;9.18;100.00;100208.28;5249059;28;20419;-68
2022/12/22 19:44:45;;;;;;;40.10;9.60;;;;;;;9.17;100.00;100209.22;5247520;28;20040;-69
2022/12/22 19:47:28;;;;;;;41.37;12.30;;;;;;;9.22;100.00;100215.91;5247975;28;20032;-70
2022/12/22 19:49:59;;;;;;;34.87;10.53;;;;;;;9.16;100.00;100210.13;5248004;28;20033;-68
2022/12/22 19:52:30;;;;;;;47.93;10.90;;;;;;;9.22;100.00;100213.28;5248193;28;20032;-72
2022/12/22 19:55:02;;;;;;;41.83;11.50;;;;;;;9.20;100.00;100206.41;5249237;28;20075;-72
2022/12/22 19:57:39;;;;;;;55.97;12.33;;;;;;;9.20;100.00;100213.38;5248729;28;20039;-73
2022/12/22 20:00:16;;;;;;;35.87;9.57;;;;;;;9.20;100.00;100208.16;5247733;28;20613;-77
2022/12/22 20:02:50;;;;;;;49.23;11.83;;;;;;;9.23;100.00;100204.53;5233476;28;20670;-80
2022/12/22 20:05:22;;;;;;;49.58;11.27;;;;;;;9.23;100.00;100209.75;5248065;28;20033;-69
2022/12/22 20:07:56;;;;;;;46.80;11.93;;;;;;;9.20;100.00;100202.94;5247917;28;20032;-69
2022/12/22 20:10:30;;;;;;;47.08;9.93;;;;;;;9.23;100.00;100205.38;5248407;28;20047;-69
2022/12/22 20:13:05;;;;;;;44.17;11.85;;;;;;;9.20;100.00;100205.56;5248263;28;20086;-69
2022/12/22 20:15:38;;;;;;;36.60;11.03;;;;;;;9.18;100.00;100203.03;5246591;28;20044;-71
2022/12/22 20:18:21;;;;;;;48.10;11.17;;;;;;;9.24;100.00;100214.03;5246850;28;20491;-71
2022/12/22 20:20:58;;;;;;;44.37;13.10;;;;;;;9.24;100.00;100209.66;5247382;28;20037;-70
2022/12/22 20:23:33;;;;;;;47.53;10.23;;;;;;;9.20;100.00;100195.09;5247819;28;20967;-71
2022/12/22 20:26:18;;;;;;;33.50;9.77;;;;;;;9.20;100.00;100203.78;5246734;28;20049;-69
2022/12/22 20:28:50;;;;;;;40.70;10.18;;;;;;;9.16;100.00;100198.88;5246687;28;20035;-70
2022/12/22 20:31:23;;;;;;;41.80;11.00;;;;;;;9.20;100.00;100210.78;5246416;28;20107;-70
2022/12/22 20:33:54;;;;;;;38.40;9.60;;;;;;;9.15;100.00;100203.25;5247146;28;20031;-69
2022/12/22 20:36:30;;;;;;;43.63;10.50;;;;;;;9.19;100.00;100203.88;5246838;28;20036;-69
2022/12/22 20:39:12;;;;;;;38.13;9.10;;;;;;;9.11;100.00;100190.50;5246903;28;20094;-71
2022/12/22 20:41:43;;;;;;;39.87;9.17;;;;;;;9.19;100.00;100211.72;5246573;28;20424;-68
2022/12/22 20:44:15;;;;;;;37.03;9.40;;;;;;;9.18;100.00;100203.03;5245777;28;20041;-67
2022/12/22 20:46:46;;;;;;;34.80;8.97;;;;;;;9.18;100.00;100205.66;5247972;28;20024;-68
2022/12/22 20:49:17;;;;;;;36.47;8.70;;;;;;;9.22;100.00;100213.28;5246721;28;21609;-68
2022/12/22 20:51:49;;;;;;;35.30;10.23;;;;;;;9.16;100.00;100202.28;5247860;28;20111;-69
2022/12/22 20:54:20;;;;;;;34.47;9.20;;;;;;;9.20;100.00;100214.25;5247709;28;20076;-70
2022/12/22 20:56:51;;;;;;;35.37;9.20;;;;;;;9.21;100.00;100209.88;5247590;28;20041;-68
2022/12/22 20:59:23;;;;;;;33.97;8.80;;;;;;;9.22;100.00;100214.13;5245918;28;20150;-67
2022/12/22 21:01:54;;;;;;;31.93;9.27;;;;;;;9.15;100.00;100195.41;5246993;28;20120;-68
2022/12/22 21:04:26;;;;;;;29.80;8.20;;;;;;;9.18;100.00;100208.28;5247869;28;20036;-68
2022/12/22 21:06:57;;;;;;;32.53;8.13;;;;;;;9.14;100.00;100204.19;5248870;28;20372;-68
2022/12/22 21:09:29;;;;;;;40.03;8.83;;;;;;;9.17;100.00;100209.22;5247571;28;20609;-72
2022/12/22 21:12:00;;;;;;;30.07;9.43;;;;;;;9.17;100.00;100217.06;5247780;28;20086;-72
2022/12/22 21:14:31;;;;;;;31.57;8.93;;;;;;;9.14;100.00;100209.41;5245757;28;20040;-72
2022/12/22 21:17:03;;;;;;;33.90;9.13;;;;;;;9.17;100.00;100211.81;5246117;28;20035;-71
2022/12/22 21:19:34;;;;;;;33.77;7.60;;;;;;;9.18;100.00;100208.28;5246067;28;20552;-71
2022/12/22 21:22:05;;;;;;;32.63;8.27;;;;;;;9.19;100.00;100211.72;5246415;28;20107;-67
2022/12/22 21:24:37;;;;;;;23.37;8.13;;;;;;;9.19;100.00;100214.34;5246403;28;20766;-69
2022/12/22 21:27:15;;;;;;;32.00;9.23;;;;;;;9.19;100.00;100207.34;5247454;28;21255;-67
2022/12/22 21:29:47;;;;;;;31.13;8.87;;;;;;;9.16;100.00;100206.72;5247396;28;20422;-71
2022/12/22 21:32:18;;;;;;;27.63;7.53;;;;;;;9.12;100.00;100208.69;5246413;28;20028;-74
2022/12/22 21:34:49;;;;;;;23.90;8.13;;;;;;;9.06;100.00;100203.81;5246223;28;20029;-72
2022/12/22 21:37:21;;;;;;;28.60;7.37;;;;;;;9.06;100.00;100193.38;5246600;28;20098;-71
2022/12/22 21:39:52;;;;;;;29.63;7.70;;;;;;;9.11;100.00;100206.97;5243723;28;20033;-70
2022/12/22 21:42:23;;;;;;;23.60;6.97;;;;;;;9.01;100.00;100190.22;5244672;28;21323;-70
2022/12/22 21:44:55;;;;;;;25.87;8.77;;;;;;;9.07;100.00;100201.13;5243772;28;20601;-72
2022/12/22 21:47:27;;;;;;;30.20;9.83;;;;;;;9.00;100.00;100189.41;5245201;28;20033;-72
2022/12/22 21:49:58;;;;;;;18.17;7.27;;;;;;;9.06;100.00;100203.81;5245260;28;20033;-70
2022/12/22 21:52:29;;;;;;;35.20;9.47;;;;;;;9.07;100.00;100210.75;5245477;28;20056;-70
2022/12/22 21:55:04;;;;;;;23.57;7.57;;;;;;;9.06;100.00;100199.44;5245481;28;20033;-71
2022/12/22 21:57:35;;;;;;;21.42;7.63;;;;;;;9.10;100.00;100200.09;5245098;28;20031;-71
2022/12/22 22:00:11;;;;;;;28.40;8.60;;;;;;;9.11;100.00;100206.16;5243980;28;20029;-71
2022/12/22 22:02:43;;;;;;;26.93;8.47;;;;;;;9.07;100.00;100198.53;5244832;28;20040;-73
2022/12/22 22:05:32;;;;;;;27.53;8.23;;;;;;;9.12;100.00;100202.59;5241677;28;20675;-71
2022/12/22 22:08:06;;;;;;;28.37;8.67;;;;;;;9.11;100.00;100199.13;5244063;28;20855;-70
2022/12/22 22:10:42;;;;;;;25.33;7.57;;;;;;;9.13;100.00;100199.88;5244848;28;20029;-70
2022/12/22 22:13:14;;;;;;;31.53;8.60;;;;;;;9.12;100.00;100206.06;5244267;28;20913;-70
2022/12/22 22:15:45;;;;;;;30.53;8.23;;;;;;;9.15;100.00;100216.31;5246260;28;20391;-71
2022/12/22 22:18:18;;;;;;;37.93;9.47;;;;;;;9.10;100.00;100207.94;5253877;28;20044;-72
2022/12/22 22:20:50;;;;;;;21.70;7.23;;;;;;;9.18;100.00;100217.91;5254953;28;20032;-72
2022/12/22 22:23:21;;;;;;;24.00;8.10;;;;;;;9.19;100.00;100219.56;5255101;28;20111;-71
2022/12/22 22:25:57;;;;;;;30.53;9.60;;;;;;;9.19;100.00;100219.56;5254733;28;20036;-71
2022/12/22 22:28:29;;;;;;;32.10;9.53;;;;;;;9.19;100.00;100220.41;5255842;28;20029;-72
2022/12/22 22:31:01;;;;;;;29.10;9.47;;;;;;;9.17;100.00;100216.22;5253975;28;20553;-72
2022/12/22 22:33:32;;;;;;;29.77;9.60;;;;;;;9.10;100.00;100205.31;5254369;28;20112;-71
2022/12/22 22:36:08;;;;;;;29.50;9.97;;;;;;;9.20;100.00;100229.91;5254963;28;20108;-71
2022/12/22 22:38:39;;;;;;;30.37;9.70;;;;;;;9.23;100.00;100230.66;5255709;28;20119;-72
2022/12/22 22:41:10;;;;;;;27.67;8.97;;;;;;;9.20;100.00;100227.31;5254765;28;20036;-72
2022/12/22 22:43:41;;;;;;;29.43;10.87;;;;;;;9.23;100.00;100230.66;5254318;28;20081;-72
2022/12/22 22:46:13;;;;;;;25.13;9.33;;;;;;;9.23;100.00;100225.44;5255977;28;20035;-71
2022/12/22 22:48:46;;;;;;;29.17;10.87;;;;;;;9.22;100.00;100223.75;5259516;28;20032;-72
2022/12/22 22:51:17;;;;;;;30.77;10.27;;;;;;;9.18;100.00;100215.28;5259211;28;20056;-71
2022/12/22 22:53:49;;;;;;;25.00;11.10;;;;;;;9.12;100.00;100208.69;5258811;28;20056;-71
